sensor_id;sensor_type;location;lat;lon;timestamp;P1;durP1;ratioP1;P2;durP2;ratioP2
33740;SDS011;20065;48.380;10.892;2023-12-07T00:00:48;23.00;;;14.85;;
33740;SDS011;20065;48.380;10.892;2023-12-07T00:03:35;21.92;;;13.98;;
33740;SDS011;20065;48.380;10.892;2023-12-07T00:06:22;22.50;;;14.45;;
33740;SDS011;20065;48.380;10.892;2023-12-07T00:09:09;25.38;;;14.98;;
33740;SDS011;20065;48.380;10.892;2023-12-07T00:11:55;26.67;;;16.50;;
33740;SDS011;20065;48.380;10.892;2023-12-07T00:14:43;27.65;;;16.27;;
33740;SDS011;20065;48.380;10.892;2023-12-07T00:17:30;22.50;;;13.80;;
33740;SDS011;20065;48.380;10.892;2023-12-07T00:20:17;22.48;;;15.00;;
33740;SDS011;20065;48.380;10.892;2023-12-07T00:23:03;21.63;;;13.65;;
33740;SDS011;20065;48.380;10.892;2023-12-07T00:25:49;24.38;;;15.88;;
33740;SDS011;20065;48.380;10.892;2023-12-07T00:28:36;22.67;;;14.57;;
33740;SDS011;20065;48.380;10.892;2023-12-07T00:31:22;26.08;;;16.27;;
33740;SDS011;20065;48.380;10.892;2023-12-07T00:34:09;24.02;;;16.00;;
33740;SDS011;20065;48.380;10.892;2023-12-07T00:36:55;22.45;;;15.38;;
33740;SDS011;20065;48.380;10.892;2023-12-07T00:39:42;26.80;;;15.95;;
33740;SDS011;20065;48.380;10.892;2023-12-07T00:42:28;23.38;;;15.77;;
33740;SDS011;20065;48.380;10.892;2023-12-07T00:45:15;31.73;;;13.88;;
33740;SDS011;20065;48.380;10.892;2023-12-07T00:48:03;22.08;;;15.75;;
33740;SDS011;20065;48.380;10.892;2023-12-07T00:50:50;24.15;;;14.15;;
33740;SDS011;20065;48.380;10.892;2023-12-07T00:53:36;21.30;;;14.88;;
33740;SDS011;20065;48.380;10.892;2023-12-07T00:56:24;26.23;;;16.10;;
33740;SDS011;20065;48.380;10.892;2023-12-07T00:59:10;25.75;;;15.32;;
33740;SDS011;20065;48.380;10.892;2023-12-07T01:01:59;23.00;;;14.40;;
33740;SDS011;20065;48.380;10.892;2023-12-07T01:04:47;23.35;;;14.70;;
33740;SDS011;20065;48.380;10.892;2023-12-07T01:07:33;23.08;;;14.70;;
33740;SDS011;20065;48.380;10.892;2023-12-07T01:10:20;24.42;;;15.05;;
33740;SDS011;20065;48.380;10.892;2023-12-07T01:13:06;25.15;;;15.70;;
33740;SDS011;20065;48.380;10.892;2023-12-07T01:15:53;25.02;;;16.00;;
33740;SDS011;20065;48.380;10.892;2023-12-07T01:18:39;26.10;;;16.67;;
33740;SDS011;20065;48.380;10.892;2023-12-07T01:21:26;23.58;;;15.05;;
33740;SDS011;20065;48.380;10.892;2023-12-07T01:24:12;24.95;;;14.65;;
33740;SDS011;20065;48.380;10.892;2023-12-07T01:26:59;23.38;;;14.52;;
33740;SDS011;20065;48.380;10.892;2023-12-07T01:29:45;24.50;;;14.73;;
33740;SDS011;20065;48.380;10.892;2023-12-07T01:32:34;20.40;;;14.18;;
33740;SDS011;20065;48.380;10.892;2023-12-07T01:35:20;21.45;;;14.15;;
33740;SDS011;20065;48.380;10.892;2023-12-07T01:38:07;24.77;;;14.70;;
33740;SDS011;20065;48.380;10.892;2023-12-07T01:40:53;26.55;;;15.00;;
33740;SDS011;20065;48.380;10.892;2023-12-07T01:43:46;24.38;;;14.05;;
33740;SDS011;20065;48.380;10.892;2023-12-07T01:46:33;23.23;;;15.15;;
33740;SDS011;20065;48.380;10.892;2023-12-07T01:49:21;25.85;;;14.85;;
33740;SDS011;20065;48.380;10.892;2023-12-07T01:52:08;19.67;;;13.57;;
33740;SDS011;20065;48.380;10.892;2023-12-07T01:54:56;21.58;;;13.23;;
33740;SDS011;20065;48.380;10.892;2023-12-07T01:57:44;21.90;;;13.00;;
33740;SDS011;20065;48.380;10.892;2023-12-07T02:00:32;21.65;;;13.13;;
33740;SDS011;20065;48.380;10.892;2023-12-07T02:03:19;19.63;;;13.23;;
33740;SDS011;20065;48.380;10.892;2023-12-07T02:06:06;18.50;;;12.43;;
33740;SDS011;20065;48.380;10.892;2023-12-07T02:08:54;24.25;;;13.10;;
33740;SDS011;20065;48.380;10.892;2023-12-07T02:11:40;21.33;;;14.15;;
33740;SDS011;20065;48.380;10.892;2023-12-07T02:14:27;25.80;;;14.50;;
33740;SDS011;20065;48.380;10.892;2023-12-07T02:20:14;17.70;;;11.95;;
33740;SDS011;20065;48.380;10.892;2023-12-07T02:23:06;21.27;;;12.65;;
33740;SDS011;20065;48.380;10.892;2023-12-07T02:25:54;20.55;;;12.35;;
33740;SDS011;20065;48.380;10.892;2023-12-07T02:28:48;20.63;;;12.88;;
33740;SDS011;20065;48.380;10.892;2023-12-07T02:31:34;19.98;;;12.20;;
33740;SDS011;20065;48.380;10.892;2023-12-07T02:34:22;20.23;;;11.98;;
33740;SDS011;20065;48.380;10.892;2023-12-07T02:37:08;19.25;;;11.77;;
33740;SDS011;20065;48.380;10.892;2023-12-07T02:39:56;24.48;;;14.23;;
33740;SDS011;20065;48.380;10.892;2023-12-07T02:42:43;20.73;;;12.55;;
33740;SDS011;20065;48.380;10.892;2023-12-07T02:45:30;17.02;;;12.27;;
33740;SDS011;20065;48.380;10.892;2023-12-07T02:48:20;17.70;;;11.35;;
33740;SDS011;20065;48.380;10.892;2023-12-07T02:51:06;19.90;;;12.25;;
33740;SDS011;20065;48.380;10.892;2023-12-07T02:53:53;22.05;;;13.32;;
33740;SDS011;20065;48.380;10.892;2023-12-07T02:56:40;17.70;;;12.02;;
33740;SDS011;20065;48.380;10.892;2023-12-07T02:59:26;22.00;;;12.00;;
33740;SDS011;20065;48.380;10.892;2023-12-07T03:02:13;19.27;;;12.75;;
33740;SDS011;20065;48.380;10.892;2023-12-07T03:04:59;17.95;;;10.88;;
33740;SDS011;20065;48.380;10.892;2023-12-07T03:07:45;16.73;;;11.13;;
33740;SDS011;20065;48.380;10.892;2023-12-07T03:10:32;19.33;;;12.10;;
33740;SDS011;20065;48.380;10.892;2023-12-07T03:13:18;15.77;;;10.10;;
33740;SDS011;20065;48.380;10.892;2023-12-07T03:16:08;16.52;;;11.63;;
33740;SDS011;20065;48.380;10.892;2023-12-07T03:18:55;16.05;;;11.00;;
33740;SDS011;20065;48.380;10.892;2023-12-07T03:21:41;19.02;;;11.60;;
33740;SDS011;20065;48.380;10.892;2023-12-07T03:24:31;16.83;;;11.10;;
33740;SDS011;20065;48.380;10.892;2023-12-07T03:27:17;16.63;;;10.82;;
33740;SDS011;20065;48.380;10.892;2023-12-07T03:30:03;15.38;;;10.68;;
33740;SDS011;20065;48.380;10.892;2023-12-07T03:32:50;14.57;;;10.32;;
33740;SDS011;20065;48.380;10.892;2023-12-07T03:35:37;14.48;;;10.15;;
33740;SDS011;20065;48.380;10.892;2023-12-07T03:38:23;16.98;;;10.18;;
33740;SDS011;20065;48.380;10.892;2023-12-07T03:41:10;16.90;;;9.15;;
33740;SDS011;20065;48.380;10.892;2023-12-07T03:43:57;17.05;;;10.00;;
33740;SDS011;20065;48.380;10.892;2023-12-07T03:46:43;14.90;;;9.38;;
33740;SDS011;20065;48.380;10.892;2023-12-07T03:49:30;15.00;;;9.75;;
33740;SDS011;20065;48.380;10.892;2023-12-07T03:52:16;17.73;;;10.15;;
33740;SDS011;20065;48.380;10.892;2023-12-07T03:55:03;14.52;;;9.55;;
33740;SDS011;20065;48.380;10.892;2023-12-07T03:57:49;14.40;;;9.63;;
33740;SDS011;20065;48.380;10.892;2023-12-07T04:00:36;14.20;;;9.13;;
33740;SDS011;20065;48.380;10.892;2023-12-07T04:03:22;15.55;;;8.90;;
33740;SDS011;20065;48.380;10.892;2023-12-07T04:06:09;13.95;;;8.48;;
33740;SDS011;20065;48.380;10.892;2023-12-07T04:08:55;16.02;;;8.93;;
33740;SDS011;20065;48.380;10.892;2023-12-07T04:11:42;13.02;;;8.23;;
33740;SDS011;20065;48.380;10.892;2023-12-07T04:14:28;13.60;;;8.02;;
33740;SDS011;20065;48.380;10.892;2023-12-07T04:17:14;11.98;;;7.50;;
33740;SDS011;20065;48.380;10.892;2023-12-07T04:20:00;12.30;;;8.25;;
33740;SDS011;20065;48.380;10.892;2023-12-07T04:22:47;12.95;;;7.97;;
33740;SDS011;20065;48.380;10.892;2023-12-07T04:25:34;12.85;;;8.30;;
33740;SDS011;20065;48.380;10.892;2023-12-07T04:28:20;11.00;;;7.40;;
33740;SDS011;20065;48.380;10.892;2023-12-07T04:31:07;13.38;;;7.72;;
33740;SDS011;20065;48.380;10.892;2023-12-07T04:33:54;12.38;;;7.32;;
33740;SDS011;20065;48.380;10.892;2023-12-07T04:36:40;12.50;;;7.65;;
33740;SDS011;20065;48.380;10.892;2023-12-07T04:39:27;14.43;;;6.80;;
33740;SDS011;20065;48.380;10.892;2023-12-07T04:42:14;11.07;;;6.70;;
33740;SDS011;20065;48.380;10.892;2023-12-07T04:45:01;9.88;;;6.40;;
33740;SDS011;20065;48.380;10.892;2023-12-07T04:47:48;11.13;;;7.10;;
33740;SDS011;20065;48.380;10.892;2023-12-07T04:50:34;13.02;;;7.07;;
33740;SDS011;20065;48.380;10.892;2023-12-07T04:53:21;9.98;;;6.75;;
33740;SDS011;20065;48.380;10.892;2023-12-07T04:56:07;11.52;;;6.55;;
33740;SDS011;20065;48.380;10.892;2023-12-07T04:58:54;13.25;;;7.20;;
33740;SDS011;20065;48.380;10.892;2023-12-07T05:01:40;10.25;;;7.30;;
33740;SDS011;20065;48.380;10.892;2023-12-07T05:04:26;13.20;;;8.50;;
33740;SDS011;20065;48.380;10.892;2023-12-07T05:07:13;13.52;;;7.50;;
33740;SDS011;20065;48.380;10.892;2023-12-07T05:09:59;13.00;;;8.20;;
33740;SDS011;20065;48.380;10.892;2023-12-07T05:12:46;12.57;;;7.88;;
33740;SDS011;20065;48.380;10.892;2023-12-07T05:15:33;17.48;;;7.78;;
33740;SDS011;20065;48.380;10.892;2023-12-07T05:18:19;15.45;;;8.45;;
33740;SDS011;20065;48.380;10.892;2023-12-07T05:21:06;13.32;;;8.63;;
33740;SDS011;20065;48.380;10.892;2023-12-07T05:23:53;16.70;;;10.40;;
33740;SDS011;20065;48.380;10.892;2023-12-07T05:26:43;15.68;;;10.48;;
33740;SDS011;20065;48.380;10.892;2023-12-07T05:29:33;17.10;;;10.25;;
33740;SDS011;20065;48.380;10.892;2023-12-07T05:32:19;15.75;;;9.98;;
33740;SDS011;20065;48.380;10.892;2023-12-07T05:35:06;21.23;;;10.80;;
33740;SDS011;20065;48.380;10.892;2023-12-07T05:37:52;16.58;;;10.32;;
33740;SDS011;20065;48.380;10.892;2023-12-07T05:40:39;16.67;;;9.80;;
33740;SDS011;20065;48.380;10.892;2023-12-07T05:43:25;16.83;;;10.75;;
33740;SDS011;20065;48.380;10.892;2023-12-07T05:46:11;16.42;;;10.02;;
33740;SDS011;20065;48.380;10.892;2023-12-07T05:48:58;18.00;;;10.85;;
33740;SDS011;20065;48.380;10.892;2023-12-07T05:51:45;15.57;;;10.18;;
33740;SDS011;20065;48.380;10.892;2023-12-07T05:54:32;19.40;;;10.57;;
33740;SDS011;20065;48.380;10.892;2023-12-07T05:57:20;19.55;;;11.20;;
33740;SDS011;20065;48.380;10.892;2023-12-07T06:00:06;18.45;;;11.77;;
33740;SDS011;20065;48.380;10.892;2023-12-07T06:02:57;19.20;;;11.90;;
33740;SDS011;20065;48.380;10.892;2023-12-07T06:05:45;20.83;;;12.32;;
33740;SDS011;20065;48.380;10.892;2023-12-07T06:08:32;19.02;;;12.38;;
33740;SDS011;20065;48.380;10.892;2023-12-07T06:11:18;20.42;;;12.90;;
33740;SDS011;20065;48.380;10.892;2023-12-07T06:14:06;19.25;;;12.65;;
33740;SDS011;20065;48.380;10.892;2023-12-07T06:16:53;18.95;;;12.77;;
33740;SDS011;20065;48.380;10.892;2023-12-07T06:19:40;23.13;;;12.75;;
33740;SDS011;20065;48.380;10.892;2023-12-07T06:22:28;18.13;;;11.90;;
33740;SDS011;20065;48.380;10.892;2023-12-07T06:25:16;18.60;;;11.63;;
33740;SDS011;20065;48.380;10.892;2023-12-07T06:28:03;18.77;;;12.23;;
33740;SDS011;20065;48.380;10.892;2023-12-07T06:30:50;17.42;;;11.88;;
33740;SDS011;20065;48.380;10.892;2023-12-07T06:33:36;17.42;;;11.77;;
33740;SDS011;20065;48.380;10.892;2023-12-07T06:39:05;22.33;;;11.68;;
33740;SDS011;20065;48.380;10.892;2023-12-07T06:41:52;18.02;;;11.52;;
33740;SDS011;20065;48.380;10.892;2023-12-07T06:44:39;16.05;;;10.55;;
33740;SDS011;20065;48.380;10.892;2023-12-07T06:47:25;18.63;;;11.27;;
33740;SDS011;20065;48.380;10.892;2023-12-07T06:50:11;21.15;;;11.75;;
33740;SDS011;20065;48.380;10.892;2023-12-07T06:52:59;20.02;;;13.20;;
33740;SDS011;20065;48.380;10.892;2023-12-07T06:55:45;17.02;;;11.88;;
33740;SDS011;20065;48.380;10.892;2023-12-07T06:58:31;20.55;;;12.25;;
33740;SDS011;20065;48.380;10.892;2023-12-07T07:01:17;18.33;;;12.23;;
33740;SDS011;20065;48.380;10.892;2023-12-07T07:04:03;17.30;;;12.05;;
33740;SDS011;20065;48.380;10.892;2023-12-07T07:06:49;18.75;;;11.75;;
33740;SDS011;20065;48.380;10.892;2023-12-07T07:09:36;18.95;;;11.93;;
33740;SDS011;20065;48.380;10.892;2023-12-07T07:12:23;17.92;;;12.35;;
33740;SDS011;20065;48.380;10.892;2023-12-07T07:15:09;19.25;;;11.85;;
33740;SDS011;20065;48.380;10.892;2023-12-07T07:17:55;16.67;;;11.38;;
33740;SDS011;20065;48.380;10.892;2023-12-07T07:20:41;20.75;;;12.77;;
33740;SDS011;20065;48.380;10.892;2023-12-07T07:23:27;19.35;;;11.65;;
33740;SDS011;20065;48.380;10.892;2023-12-07T07:26:13;25.23;;;12.48;;
33740;SDS011;20065;48.380;10.892;2023-12-07T07:29:02;21.88;;;13.25;;
33740;SDS011;20065;48.380;10.892;2023-12-07T07:31:49;21.80;;;12.85;;
33740;SDS011;20065;48.380;10.892;2023-12-07T07:34:35;16.35;;;11.10;;
33740;SDS011;20065;48.380;10.892;2023-12-07T07:37:21;19.80;;;11.80;;
33740;SDS011;20065;48.380;10.892;2023-12-07T07:40:08;21.70;;;13.60;;
33740;SDS011;20065;48.380;10.892;2023-12-07T07:42:56;19.80;;;11.75;;
33740;SDS011;20065;48.380;10.892;2023-12-07T07:45:43;21.98;;;12.48;;
33740;SDS011;20065;48.380;10.892;2023-12-07T07:48:29;19.67;;;13.55;;
33740;SDS011;20065;48.380;10.892;2023-12-07T07:51:15;21.73;;;12.55;;
33740;SDS011;20065;48.380;10.892;2023-12-07T07:54:04;20.15;;;12.40;;
33740;SDS011;20065;48.380;10.892;2023-12-07T07:56:53;18.50;;;12.60;;
33740;SDS011;20065;48.380;10.892;2023-12-07T07:59:39;21.50;;;12.88;;
33740;SDS011;20065;48.380;10.892;2023-12-07T08:02:26;16.67;;;12.15;;
33740;SDS011;20065;48.380;10.892;2023-12-07T08:05:12;19.38;;;12.50;;
33740;SDS011;20065;48.380;10.892;2023-12-07T08:07:58;21.35;;;13.50;;
33740;SDS011;20065;48.380;10.892;2023-12-07T08:10:45;20.75;;;12.85;;
33740;SDS011;20065;48.380;10.892;2023-12-07T08:13:31;23.52;;;13.15;;
33740;SDS011;20065;48.380;10.892;2023-12-07T08:16:17;18.23;;;12.65;;
33740;SDS011;20065;48.380;10.892;2023-12-07T08:19:04;22.30;;;12.65;;
33740;SDS011;20065;48.380;10.892;2023-12-07T08:21:50;18.67;;;13.40;;
33740;SDS011;20065;48.380;10.892;2023-12-07T08:24:40;18.35;;;11.32;;
33740;SDS011;20065;48.380;10.892;2023-12-07T08:27:26;21.45;;;12.55;;
33740;SDS011;20065;48.380;10.892;2023-12-07T08:30:12;19.92;;;12.77;;
33740;SDS011;20065;48.380;10.892;2023-12-07T08:32:58;20.00;;;13.55;;
33740;SDS011;20065;48.380;10.892;2023-12-07T08:35:44;19.60;;;12.65;;
33740;SDS011;20065;48.380;10.892;2023-12-07T08:38:31;18.98;;;13.65;;
33740;SDS011;20065;48.380;10.892;2023-12-07T08:41:18;19.13;;;12.60;;
33740;SDS011;20065;48.380;10.892;2023-12-07T08:44:06;19.67;;;13.65;;
33740;SDS011;20065;48.380;10.892;2023-12-07T08:46:52;25.00;;;13.85;;
33740;SDS011;20065;48.380;10.892;2023-12-07T08:49:39;24.67;;;15.40;;
33740;SDS011;20065;48.380;10.892;2023-12-07T08:52:26;20.42;;;12.93;;
33740;SDS011;20065;48.380;10.892;2023-12-07T08:55:12;20.20;;;12.65;;
33740;SDS011;20065;48.380;10.892;2023-12-07T08:58:00;18.40;;;12.90;;
33740;SDS011;20065;48.380;10.892;2023-12-07T09:00:49;16.55;;;12.35;;
33740;SDS011;20065;48.380;10.892;2023-12-07T09:03:36;20.80;;;12.32;;
33740;SDS011;20065;48.380;10.892;2023-12-07T09:06:22;15.05;;;11.55;;
33740;SDS011;20065;48.380;10.892;2023-12-07T09:09:09;18.30;;;13.02;;
33740;SDS011;20065;48.380;10.892;2023-12-07T09:11:57;18.52;;;14.23;;
33740;SDS011;20065;48.380;10.892;2023-12-07T09:14:43;17.92;;;12.98;;
33740;SDS011;20065;48.380;10.892;2023-12-07T09:17:30;17.45;;;12.60;;
33740;SDS011;20065;48.380;10.892;2023-12-07T09:20:17;17.50;;;12.68;;
33740;SDS011;20065;48.380;10.892;2023-12-07T09:23:03;17.85;;;13.10;;
33740;SDS011;20065;48.380;10.892;2023-12-07T09:25:50;18.98;;;12.80;;
33740;SDS011;20065;48.380;10.892;2023-12-07T09:28:36;19.10;;;13.43;;
33740;SDS011;20065;48.380;10.892;2023-12-07T09:31:25;18.98;;;13.75;;
33740;SDS011;20065;48.380;10.892;2023-12-07T09:34:11;20.92;;;13.65;;
33740;SDS011;20065;48.380;10.892;2023-12-07T09:37:06;22.48;;;13.23;;
33740;SDS011;20065;48.380;10.892;2023-12-07T09:39:55;17.33;;;12.35;;
33740;SDS011;20065;48.380;10.892;2023-12-07T09:42:41;16.98;;;11.00;;
33740;SDS011;20065;48.380;10.892;2023-12-07T09:45:31;14.70;;;10.68;;
33740;SDS011;20065;48.380;10.892;2023-12-07T09:48:17;15.30;;;10.70;;
33740;SDS011;20065;48.380;10.892;2023-12-07T09:51:04;17.33;;;10.80;;
33740;SDS011;20065;48.380;10.892;2023-12-07T09:53:52;16.40;;;11.10;;
33740;SDS011;20065;48.380;10.892;2023-12-07T09:56:39;17.00;;;11.38;;
33740;SDS011;20065;48.380;10.892;2023-12-07T09:59:25;15.02;;;10.23;;
33740;SDS011;20065;48.380;10.892;2023-12-07T10:02:13;15.60;;;10.75;;
33740;SDS011;20065;48.380;10.892;2023-12-07T10:05:03;14.18;;;10.45;;
33740;SDS011;20065;48.380;10.892;2023-12-07T10:07:50;13.32;;;9.70;;
33740;SDS011;20065;48.380;10.892;2023-12-07T10:10:36;13.50;;;9.50;;
33740;SDS011;20065;48.380;10.892;2023-12-07T10:13:23;14.88;;;9.20;;
33740;SDS011;20065;48.380;10.892;2023-12-07T10:16:11;13.80;;;9.90;;
33740;SDS011;20065;48.380;10.892;2023-12-07T10:19:14;14.73;;;10.23;;
33740;SDS011;20065;48.380;10.892;2023-12-07T10:22:13;15.75;;;8.85;;
33740;SDS011;20065;48.380;10.892;2023-12-07T10:25:00;15.20;;;10.38;;
33740;SDS011;20065;48.380;10.892;2023-12-07T10:27:46;13.20;;;9.52;;
33740;SDS011;20065;48.380;10.892;2023-12-07T10:30:36;13.23;;;9.00;;
33740;SDS011;20065;48.380;10.892;2023-12-07T10:33:23;13.75;;;9.60;;
33740;SDS011;20065;48.380;10.892;2023-12-07T10:36:11;17.08;;;10.13;;
33740;SDS011;20065;48.380;10.892;2023-12-07T10:38:57;17.00;;;10.18;;
33740;SDS011;20065;48.380;10.892;2023-12-07T10:41:43;16.45;;;10.30;;
33740;SDS011;20065;48.380;10.892;2023-12-07T10:44:33;15.13;;;9.85;;
33740;SDS011;20065;48.380;10.892;2023-12-07T10:47:26;19.70;;;11.00;;
33740;SDS011;20065;48.380;10.892;2023-12-07T10:50:19;13.68;;;9.13;;
33740;SDS011;20065;48.380;10.892;2023-12-07T10:53:09;19.95;;;11.00;;
33740;SDS011;20065;48.380;10.892;2023-12-07T10:56:08;18.60;;;10.50;;
33740;SDS011;20065;48.380;10.892;2023-12-07T10:59:03;15.82;;;9.60;;
33740;SDS011;20065;48.380;10.892;2023-12-07T11:01:49;17.10;;;10.57;;
33740;SDS011;20065;48.380;10.892;2023-12-07T11:04:38;27.40;;;14.27;;
33740;SDS011;20065;48.380;10.892;2023-12-07T11:07:28;12.90;;;8.35;;
33740;SDS011;20065;48.380;10.892;2023-12-07T11:11:00;15.98;;;7.50;;
33740;SDS011;20065;48.380;10.892;2023-12-07T11:14:38;9.95;;;6.55;;
33740;SDS011;20065;48.380;10.892;2023-12-07T11:17:05;11.82;;;7.68;;
33740;SDS011;20065;48.380;10.892;2023-12-07T11:19:52;17.52;;;8.88;;
33740;SDS011;20065;48.380;10.892;2023-12-07T11:22:40;11.25;;;7.50;;
33740;SDS011;20065;48.380;10.892;2023-12-07T11:25:26;14.10;;;8.07;;
33740;SDS011;20065;48.380;10.892;2023-12-07T11:28:13;8.80;;;6.85;;
33740;SDS011;20065;48.380;10.892;2023-12-07T11:31:01;10.07;;;6.55;;
33740;SDS011;20065;48.380;10.892;2023-12-07T11:33:48;12.27;;;7.07;;
33740;SDS011;20065;48.380;10.892;2023-12-07T11:36:35;9.80;;;6.53;;
33740;SDS011;20065;48.380;10.892;2023-12-07T11:39:21;14.35;;;7.72;;
33740;SDS011;20065;48.380;10.892;2023-12-07T11:42:12;12.32;;;7.60;;
33740;SDS011;20065;48.380;10.892;2023-12-07T11:45:02;14.35;;;8.15;;
33740;SDS011;20065;48.380;10.892;2023-12-07T11:53:41;13.13;;;9.07;;
33740;SDS011;20065;48.380;10.892;2023-12-07T11:56:27;16.25;;;10.63;;
33740;SDS011;20065;48.380;10.892;2023-12-07T11:59:14;15.45;;;10.63;;
33740;SDS011;20065;48.380;10.892;2023-12-07T12:02:01;17.38;;;11.30;;
33740;SDS011;20065;48.380;10.892;2023-12-07T12:04:50;13.25;;;9.32;;
33740;SDS011;20065;48.380;10.892;2023-12-07T12:07:37;12.27;;;7.60;;
33740;SDS011;20065;48.380;10.892;2023-12-07T12:10:23;10.52;;;6.95;;
33740;SDS011;20065;48.380;10.892;2023-12-07T12:13:11;9.45;;;6.05;;
33740;SDS011;20065;48.380;10.892;2023-12-07T12:15:58;10.45;;;5.28;;
33740;SDS011;20065;48.380;10.892;2023-12-07T12:18:45;6.68;;;4.43;;
33740;SDS011;20065;48.380;10.892;2023-12-07T12:21:35;7.85;;;3.25;;
33740;SDS011;20065;48.380;10.892;2023-12-07T12:24:25;7.85;;;2.80;;
33740;SDS011;20065;48.380;10.892;2023-12-07T12:27:14;5.75;;;3.35;;
33740;SDS011;20065;48.380;10.892;2023-12-07T12:30:02;7.00;;;3.85;;
33740;SDS011;20065;48.380;10.892;2023-12-07T12:32:49;5.75;;;3.92;;
33740;SDS011;20065;48.380;10.892;2023-12-07T12:35:36;6.30;;;3.50;;
33740;SDS011;20065;48.380;10.892;2023-12-07T12:38:28;7.00;;;3.78;;
33740;SDS011;20065;48.380;10.892;2023-12-07T12:41:17;10.75;;;6.03;;
33740;SDS011;20065;48.380;10.892;2023-12-07T12:44:05;10.27;;;3.42;;
33740;SDS011;20065;48.380;10.892;2023-12-07T12:46:52;6.80;;;3.88;;
33740;SDS011;20065;48.380;10.892;2023-12-07T12:49:41;5.25;;;3.05;;
33740;SDS011;20065;48.380;10.892;2023-12-07T12:52:32;6.78;;;3.63;;
33740;SDS011;20065;48.380;10.892;2023-12-07T12:55:19;7.03;;;2.90;;
33740;SDS011;20065;48.380;10.892;2023-12-07T12:58:06;5.90;;;3.50;;
33740;SDS011;20065;48.380;10.892;2023-12-07T13:00:58;9.70;;;4.30;;
33740;SDS011;20065;48.380;10.892;2023-12-07T13:03:49;8.77;;;5.05;;
33740;SDS011;20065;48.380;10.892;2023-12-07T13:06:39;6.95;;;3.47;;
33740;SDS011;20065;48.380;10.892;2023-12-07T13:09:31;6.00;;;3.40;;
33740;SDS011;20065;48.380;10.892;2023-12-07T13:12:18;4.80;;;3.28;;
33740;SDS011;20065;48.380;10.892;2023-12-07T13:15:06;8.32;;;3.88;;
33740;SDS011;20065;48.380;10.892;2023-12-07T13:17:53;6.20;;;3.90;;
33740;SDS011;20065;48.380;10.892;2023-12-07T13:20:40;7.15;;;4.05;;
33740;SDS011;20065;48.380;10.892;2023-12-07T13:23:28;7.97;;;4.03;;
33740;SDS011;20065;48.380;10.892;2023-12-07T13:26:24;5.85;;;3.97;;
33740;SDS011;20065;48.380;10.892;2023-12-07T13:29:11;6.53;;;4.10;;
33740;SDS011;20065;48.380;10.892;2023-12-07T13:32:03;7.78;;;4.35;;
33740;SDS011;20065;48.380;10.892;2023-12-07T13:37:56;5.93;;;3.28;;
33740;SDS011;20065;48.380;10.892;2023-12-07T13:40:43;7.38;;;3.88;;
33740;SDS011;20065;48.380;10.892;2023-12-07T13:43:30;6.15;;;3.95;;
33740;SDS011;20065;48.380;10.892;2023-12-07T13:46:17;5.85;;;3.55;;
33740;SDS011;20065;48.380;10.892;2023-12-07T13:49:04;6.78;;;3.90;;
33740;SDS011;20065;48.380;10.892;2023-12-07T13:51:53;6.55;;;3.90;;
33740;SDS011;20065;48.380;10.892;2023-12-07T13:54:44;6.15;;;3.72;;
33740;SDS011;20065;48.380;10.892;2023-12-07T13:57:36;7.10;;;3.75;;
33740;SDS011;20065;48.380;10.892;2023-12-07T14:00:26;6.53;;;3.75;;
33740;SDS011;20065;48.380;10.892;2023-12-07T14:03:13;12.10;;;6.25;;
33740;SDS011;20065;48.380;10.892;2023-12-07T14:06:00;7.90;;;4.07;;
33740;SDS011;20065;48.380;10.892;2023-12-07T14:08:47;6.95;;;4.05;;
33740;SDS011;20065;48.380;10.892;2023-12-07T14:11:37;8.40;;;4.90;;
33740;SDS011;20065;48.380;10.892;2023-12-07T14:14:25;7.60;;;4.22;;
33740;SDS011;20065;48.380;10.892;2023-12-07T14:17:15;5.88;;;3.40;;
33740;SDS011;20065;48.380;10.892;2023-12-07T14:20:07;6.90;;;4.32;;
33740;SDS011;20065;48.380;10.892;2023-12-07T14:22:55;7.97;;;4.22;;
33740;SDS011;20065;48.380;10.892;2023-12-07T14:25:42;11.07;;;4.97;;
33740;SDS011;20065;48.380;10.892;2023-12-07T14:28:32;8.90;;;4.60;;
33740;SDS011;20065;48.380;10.892;2023-12-07T14:31:22;8.20;;;4.80;;
33740;SDS011;20065;48.380;10.892;2023-12-07T14:34:09;8.13;;;4.65;;
33740;SDS011;20065;48.380;10.892;2023-12-07T14:36:58;12.57;;;5.60;;
33740;SDS011;20065;48.380;10.892;2023-12-07T14:39:45;7.20;;;5.35;;
33740;SDS011;20065;48.380;10.892;2023-12-07T14:42:31;8.35;;;5.28;;
33740;SDS011;20065;48.380;10.892;2023-12-07T14:45:17;9.50;;;5.78;;
33740;SDS011;20065;48.380;10.892;2023-12-07T14:48:05;8.30;;;4.43;;
33740;SDS011;20065;48.380;10.892;2023-12-07T14:50:52;7.32;;;5.25;;
33740;SDS011;20065;48.380;10.892;2023-12-07T14:53:38;11.57;;;6.03;;
33740;SDS011;20065;48.380;10.892;2023-12-07T14:56:24;11.10;;;6.18;;
33740;SDS011;20065;48.380;10.892;2023-12-07T14:59:11;10.77;;;6.18;;
33740;SDS011;20065;48.380;10.892;2023-12-07T15:01:57;10.88;;;5.40;;
33740;SDS011;20065;48.380;10.892;2023-12-07T15:04:43;12.75;;;6.55;;
33740;SDS011;20065;48.380;10.892;2023-12-07T15:07:30;10.00;;;6.28;;
33740;SDS011;20065;48.380;10.892;2023-12-07T15:10:16;11.77;;;5.82;;
33740;SDS011;20065;48.380;10.892;2023-12-07T15:13:02;13.13;;;8.27;;
33740;SDS011;20065;48.380;10.892;2023-12-07T15:15:49;13.00;;;7.85;;
33740;SDS011;20065;48.380;10.892;2023-12-07T15:18:35;17.63;;;8.30;;
33740;SDS011;20065;48.380;10.892;2023-12-07T15:21:22;11.35;;;7.30;;
33740;SDS011;20065;48.380;10.892;2023-12-07T15:24:09;12.90;;;8.93;;
33740;SDS011;20065;48.380;10.892;2023-12-07T15:26:55;17.50;;;9.23;;
33740;SDS011;20065;48.380;10.892;2023-12-07T15:29:41;13.98;;;9.05;;
33740;SDS011;20065;48.380;10.892;2023-12-07T15:32:27;16.90;;;8.90;;
33740;SDS011;20065;48.380;10.892;2023-12-07T15:35:13;15.43;;;9.43;;
33740;SDS011;20065;48.380;10.892;2023-12-07T15:38:00;14.30;;;9.48;;
33740;SDS011;20065;48.380;10.892;2023-12-07T15:40:51;17.25;;;9.50;;
33740;SDS011;20065;48.380;10.892;2023-12-07T15:43:41;19.55;;;10.45;;
33740;SDS011;20065;48.380;10.892;2023-12-07T15:46:27;16.42;;;10.05;;
33740;SDS011;20065;48.380;10.892;2023-12-07T15:49:13;19.00;;;12.43;;
33740;SDS011;20065;48.380;10.892;2023-12-07T15:52:00;21.67;;;12.52;;
33740;SDS011;20065;48.380;10.892;2023-12-07T15:54:46;20.27;;;12.27;;
33740;SDS011;20065;48.380;10.892;2023-12-07T15:57:32;17.65;;;10.70;;
33740;SDS011;20065;48.380;10.892;2023-12-07T16:00:21;16.27;;;10.77;;
33740;SDS011;20065;48.380;10.892;2023-12-07T16:03:08;16.45;;;10.90;;
33740;SDS011;20065;48.380;10.892;2023-12-07T16:05:54;20.42;;;10.98;;
33740;SDS011;20065;48.380;10.892;2023-12-07T16:08:40;21.90;;;10.73;;
33740;SDS011;20065;48.380;10.892;2023-12-07T16:11:26;18.90;;;12.18;;
33740;SDS011;20065;48.380;10.892;2023-12-07T16:14:12;16.40;;;11.25;;
33740;SDS011;20065;48.380;10.892;2023-12-07T16:16:58;19.35;;;11.25;;
33740;SDS011;20065;48.380;10.892;2023-12-07T16:19:45;20.50;;;11.85;;
33740;SDS011;20065;48.380;10.892;2023-12-07T16:22:34;21.50;;;11.25;;
33740;SDS011;20065;48.380;10.892;2023-12-07T16:25:20;16.08;;;10.68;;
33740;SDS011;20065;48.380;10.892;2023-12-07T16:28:11;18.58;;;10.98;;